createdAt,value
2023-02-14T00:04:01.655Z,3.65
2023-02-14T00:09:03.835Z,4.32
2023-02-14T00:14:24.557Z,3.53
2023-02-14T00:19:26.802Z,3.85
2023-02-14T00:24:29.084Z,4.30
2023-02-14T00:29:32.211Z,4.13
2023-02-14T00:34:36.644Z,3.70
2023-02-14T00:39:39.058Z,3.50
2023-02-14T00:44:41.282Z,3.90
2023-02-14T00:49:43.172Z,3.40
2023-02-14T00:54:45.132Z,3.72
2023-02-14T00:59:49.323Z,3.67
2023-02-14T01:04:51.625Z,4.18
2023-02-14T01:09:54.504Z,3.42
2023-02-14T01:14:56.968Z,3.38
2023-02-14T01:19:59.054Z,3.85
2023-02-14T01:25:01.072Z,3.45
2023-02-14T01:30:06.072Z,3.60
2023-02-14T01:35:09.211Z,3.60
2023-02-14T01:40:12.374Z,3.75
2023-02-14T01:45:20.955Z,4.03
2023-02-14T01:55:29.981Z,4.20
2023-02-14T02:00:50.375Z,3.97
2023-02-14T02:05:56.439Z,3.95
2023-02-14T02:11:00.142Z,4.53
2023-02-14T02:16:20.910Z,4.40
2023-02-14T02:21:58.082Z,4.63
2023-02-14T02:27:17.042Z,4.45
2023-02-14T02:32:34.092Z,3.75
2023-02-14T02:37:55.282Z,4.25
2023-02-14T02:43:18.589Z,4.60
2023-02-14T02:48:22.435Z,4.03
2023-02-14T02:53:29.673Z,3.15
2023-02-14T02:59:00.152Z,3.40
2023-02-14T03:04:25.359Z,3.25
2023-02-14T03:09:27.287Z,2.92
2023-02-14T03:14:45.633Z,2.95
2023-02-14T03:20:15.308Z,3.25
2023-02-14T03:25:43.520Z,3.47
2023-02-14T03:30:59.908Z,3.33
2023-02-14T03:36:03.874Z,3.42
2023-02-14T03:41:09.692Z,2.80
2023-02-14T03:46:19.965Z,2.92
2023-02-14T03:51:24.098Z,2.63
2023-02-14T03:56:42.563Z,3.20
2023-02-14T04:06:47.012Z,2.80
2023-02-14T04:11:50.707Z,3.13
2023-02-14T04:17:11.588Z,2.72
2023-02-14T04:22:13.676Z,2.88
2023-02-14T04:27:15.669Z,3.65
2023-02-14T04:32:20.314Z,3.17
2023-02-14T04:37:22.379Z,3.60
2023-02-14T04:42:24.338Z,3.80
2023-02-14T04:47:26.438Z,4.70
2023-02-14T04:52:30.245Z,4.72
2023-02-14T04:57:32.192Z,3.58
2023-02-14T05:02:34.095Z,3.60
2023-02-14T05:07:36.296Z,3.45
2023-02-14T05:12:38.309Z,3.72
2023-02-14T05:17:40.200Z,3.38
2023-02-14T05:22:42.268Z,3.88
2023-02-14T05:27:44.176Z,3.97
2023-02-14T05:32:46.171Z,4.18
2023-02-14T05:37:48.387Z,3.95
2023-02-14T05:42:52.447Z,4.32
2023-02-14T05:47:54.552Z,4.13
2023-02-14T05:52:56.803Z,4.00
2023-02-14T05:57:58.872Z,4.45
2023-02-14T06:03:01.248Z,3.70
2023-02-14T06:08:03.329Z,3.38
2023-02-14T06:13:08.989Z,4.50
2023-02-14T06:18:11.320Z,4.57
2023-02-14T06:23:13.421Z,5.20
2023-02-14T06:28:15.557Z,5.72
2023-02-14T06:33:17.480Z,5.05
2023-02-14T06:38:19.454Z,5.13
2023-02-14T06:43:21.514Z,5.05
2023-02-14T06:48:23.649Z,5.03
2023-02-14T06:53:25.619Z,5.18
2023-02-14T06:58:27.651Z,5.47
2023-02-14T07:03:29.841Z,5.45
2023-02-14T07:08:33.271Z,4.40
2023-02-14T07:13:35.776Z,5.28
2023-02-14T07:18:38.006Z,4.72
2023-02-14T07:23:40.033Z,4.90
2023-02-14T07:28:44.895Z,5.20
2023-02-14T07:33:47.180Z,6.00
2023-02-14T07:38:49.192Z,5.53
2023-02-14T07:43:51.072Z,5.53
2023-02-14T07:48:53.173Z,6.32
2023-02-14T07:53:55.246Z,6.35
2023-02-14T07:58:57.111Z,6.47
2023-02-14T08:03:59.391Z,9.38
2023-02-14T08:09:01.531Z,7.85
2023-02-14T08:14:04.749Z,7.10
2023-02-14T08:19:08.019Z,9.15
2023-02-14T08:24:10.697Z,6.32
2023-02-14T08:29:12.595Z,6.88
2023-02-14T08:34:15.697Z,6.47
2023-02-14T08:39:17.858Z,6.95
2023-02-14T08:44:20.281Z,6.43
2023-02-14T08:49:22.347Z,6.65
2023-02-14T08:54:24.291Z,6.32
2023-02-14T08:59:26.334Z,6.38
2023-02-14T09:04:28.358Z,6.70
2023-02-14T09:09:30.544Z,6.65
2023-02-14T09:14:39.805Z,6.03
2023-02-14T09:19:42.214Z,6.15
2023-02-14T09:24:44.595Z,6.05
2023-02-14T09:29:46.772Z,6.57
2023-02-14T09:35:07.387Z,5.68
2023-02-14T09:40:10.102Z,5.75
2023-02-14T09:45:15.470Z,6.57
2023-02-14T09:55:35.585Z,7.28
2023-02-14T10:00:48.666Z,6.75
2023-02-14T10:06:22.474Z,12.90
2023-02-14T10:11:25.030Z,8.07
2023-02-14T10:16:39.302Z,4.78
2023-02-14T10:21:47.107Z,4.90
2023-02-14T10:26:50.833Z,4.43
2023-02-14T10:32:02.244Z,4.57
2023-02-14T10:37:35.476Z,4.25
2023-02-14T10:43:01.535Z,5.78
2023-02-14T10:48:16.788Z,5.45
2023-02-14T10:54:00.557Z,4.93
2023-02-14T10:59:22.059Z,5.35
2023-02-14T11:04:25.458Z,4.82
2023-02-14T11:09:27.418Z,6.43
2023-02-14T11:14:32.655Z,4.82
2023-02-14T11:19:37.302Z,5.82
2023-02-14T11:24:42.418Z,6.18
2023-02-14T11:29:52.502Z,9.00
2023-02-14T11:35:14.108Z,8.80
2023-02-14T11:40:31.481Z,7.72
2023-02-14T11:45:38.580Z,5.80
2023-02-14T11:50:42.217Z,5.30
2023-02-14T11:55:44.583Z,5.00
2023-02-14T12:00:53.212Z,6.22
2023-02-14T12:06:00.616Z,5.88
2023-02-14T12:11:05.725Z,5.60
2023-02-14T12:16:24.183Z,5.10
2023-02-14T12:21:48.959Z,5.32
2023-02-14T12:27:21.037Z,5.32
2023-02-14T12:32:28.821Z,5.47
2023-02-14T12:37:41.145Z,5.25
2023-02-14T12:43:27.125Z,5.00
2023-02-14T12:49:01.054Z,3.97
2023-02-14T12:54:09.129Z,5.07
2023-02-14T12:59:29.255Z,10.73
2023-02-14T13:04:54.065Z,4.80
2023-02-14T13:10:05.227Z,4.57
2023-02-14T13:15:30.952Z,5.05
2023-02-14T13:20:53.488Z,4.60
2023-02-14T13:26:04.902Z,3.50
2023-02-14T13:31:07.133Z,3.95
2023-02-14T13:36:12.492Z,4.00
2023-02-14T13:41:15.821Z,6.43
2023-02-14T13:46:49.823Z,4.50
2023-02-14T13:51:57.740Z,4.72
2023-02-14T13:57:23.579Z,4.70
2023-02-14T14:02:30.097Z,4.93
2023-02-14T14:07:33.222Z,4.72
2023-02-14T14:12:35.278Z,4.63
2023-02-14T14:17:44.642Z,3.85
2023-02-14T14:22:48.790Z,4.00
2023-02-14T14:27:50.760Z,3.92
2023-02-14T14:32:52.724Z,4.30
2023-02-14T14:37:56.940Z,4.07
2023-02-14T14:43:23.638Z,3.47
2023-02-14T14:48:33.687Z,3.63
2023-02-14T14:53:42.206Z,4.70
2023-02-14T14:58:44.459Z,3.70
2023-02-14T15:03:46.479Z,4.00
2023-02-14T15:08:49.904Z,4.05
2023-02-14T15:13:57.596Z,4.75
2023-02-14T15:19:01.778Z,4.50
2023-02-14T15:24:04.452Z,4.15
2023-02-14T15:29:07.672Z,4.20
2023-02-14T15:34:10.734Z,5.10
2023-02-14T15:39:14.317Z,4.43
2023-02-14T15:44:21.180Z,3.72
2023-02-14T15:49:30.321Z,3.70
2023-02-14T15:54:38.861Z,4.15
2023-02-14T15:59:42.276Z,4.55
2023-02-14T16:04:44.488Z,3.92
2023-02-14T16:09:46.426Z,4.10
2023-02-14T16:15:03.228Z,6.68
2023-02-14T16:20:30.050Z,3.58
2023-02-14T16:25:32.222Z,3.60
2023-02-14T16:30:34.163Z,3.55
2023-02-14T16:35:36.140Z,3.50
2023-02-14T16:40:38.022Z,3.22
2023-02-14T16:45:41.252Z,2.80
2023-02-14T16:50:43.645Z,3.63
2023-02-14T16:55:45.552Z,3.00
2023-02-14T17:00:47.646Z,3.00
2023-02-14T17:05:49.848Z,3.08
2023-02-14T17:10:52.300Z,2.70
2023-02-14T17:15:56.193Z,2.92
2023-02-14T17:20:59.594Z,3.38
2023-02-14T17:26:06.318Z,2.80
2023-02-14T17:31:08.569Z,3.33
2023-02-14T17:36:12.854Z,2.78
2023-02-14T17:41:22.364Z,2.40
2023-02-14T17:46:24.509Z,2.60
2023-02-14T17:51:26.475Z,2.95
2023-02-14T17:56:28.392Z,2.47
2023-02-14T18:01:34.629Z,3.05
2023-02-14T18:06:37.458Z,3.30
2023-02-14T18:11:40.437Z,3.35
2023-02-14T18:16:44.896Z,4.00
2023-02-14T18:21:47.708Z,3.90
2023-02-14T18:26:49.866Z,3.50
2023-02-14T18:31:52.124Z,3.00
2023-02-14T18:36:55.070Z,3.13
2023-02-14T18:42:00.021Z,3.72
2023-02-14T18:47:02.809Z,3.67
2023-02-14T18:52:07.010Z,4.10
2023-02-14T18:57:09.086Z,4.50
2023-02-14T19:02:12.104Z,4.30
2023-02-14T19:07:14.272Z,4.78
2023-02-14T19:12:16.348Z,4.65
2023-02-14T19:17:18.324Z,4.43
2023-02-14T19:22:20.590Z,4.28
2023-02-14T19:27:24.047Z,4.13
2023-02-14T19:32:26.596Z,5.05
2023-02-14T19:37:28.548Z,4.97
2023-02-14T19:42:30.470Z,5.15
2023-02-14T19:47:46.314Z,5.00
2023-02-14T19:52:49.339Z,5.07
2023-02-14T19:57:51.320Z,4.75
2023-02-14T20:02:53.397Z,4.95
2023-02-14T20:07:55.536Z,5.05
2023-02-14T20:12:57.470Z,5.97
2023-02-14T20:17:59.468Z,5.63
2023-02-14T20:23:02.524Z,4.93
2023-02-14T20:28:05.088Z,5.70
2023-02-14T20:33:07.264Z,5.60
2023-02-14T20:38:09.507Z,8.57
2023-02-14T20:43:11.549Z,5.55
2023-02-14T20:48:13.571Z,5.85
2023-02-14T20:53:15.441Z,5.47
2023-02-14T20:58:17.488Z,4.80
2023-02-14T21:03:19.748Z,5.13
2023-02-14T21:08:22.460Z,5.68
2023-02-14T21:13:24.609Z,5.28
2023-02-14T21:18:26.578Z,5.68
2023-02-14T21:23:28.639Z,6.15
2023-02-14T21:28:30.789Z,5.82
2023-02-14T21:33:33.500Z,5.10
2023-02-14T21:38:36.059Z,6.40
2023-02-14T21:43:40.502Z,5.28
2023-02-14T21:49:01.939Z,5.47
2023-02-14T21:54:04.021Z,5.38
2023-02-14T21:59:06.169Z,6.40
2023-02-14T22:04:10.657Z,4.95
2023-02-14T22:09:14.362Z,6.10
2023-02-14T22:14:16.487Z,5.40
2023-02-14T22:19:18.477Z,5.63
2023-02-14T22:24:20.619Z,5.28
2023-02-14T22:29:22.747Z,5.05
2023-02-14T22:34:25.119Z,4.80
2023-02-14T22:39:26.966Z,4.85
2023-02-14T22:44:29.267Z,4.85
2023-02-14T22:49:31.362Z,5.43
2023-02-14T22:54:33.415Z,5.22
2023-02-14T22:59:35.361Z,4.68
2023-02-14T23:04:37.395Z,4.90
2023-02-14T23:09:39.447Z,4.78
2023-02-14T23:14:59.998Z,5.47
2023-02-14T23:20:20.578Z,5.68
2023-02-14T23:25:22.943Z,5.00
2023-02-14T23:30:25.284Z,4.55
2023-02-14T23:35:27.343Z,4.68
2023-02-14T23:40:29.440Z,5.30
2023-02-14T23:45:38.794Z,4.85
2023-02-14T23:50:40.852Z,4.57
2023-02-14T23:55:43.054Z,4.88
